Time;durP1;ratioP1;P1;durP2;ratioP2;P2;SDS_P1;SDS_P2;PMS_P1;PMS_P2;Temp;Humidity;BMP_temperature;BMP_pressure;BME280_temperature;BME280_humidity;BME280_pressure;Samples;Min_cycle;Max_cycle;Signal;HPM_P1;HPM_P2
2022/03/04 00:02:21;;;;;;;12.13;9.10;;;;;;;2.28;90.61;99751.50;1655300;84;21147;-68
2022/03/04 00:04:48;;;;;;;11.75;10.20;;;;;;;2.25;90.70;99755.77;1643756;85;21536;-65
2022/03/04 00:07:15;;;;;;;12.13;9.50;;;;;;;2.26;90.70;99751.67;1678315;84;21099;-68
2022/03/04 00:09:41;;;;;;;11.48;10.28;;;;;;;2.33;90.40;99751.89;1672826;84;21581;-64
2022/03/04 00:12:10;;;;;;;10.13;8.87;;;;;;;2.37;90.02;99751.10;1673433;84;21107;-66
2022/03/04 00:14:38;;;;;;;10.87;9.07;;;;;;;2.36;90.08;99747.66;1675919;84;21533;-65
2022/03/04 00:17:05;;;;;;;12.03;9.13;;;;;;;2.33;90.25;99749.26;1676459;85;21544;-69
2022/03/04 00:19:31;;;;;;;11.43;7.55;;;;;;;2.28;90.18;99748.87;1673816;84;21550;-65
2022/03/04 00:21:58;;;;;;;11.00;7.05;;;;;;;2.30;89.97;99748.27;1670903;84;21521;-65
2022/03/04 00:24:26;;;;;;;9.77;7.43;;;;;;;2.32;89.71;99738.41;1674648;84;21125;-69
2022/03/04 00:26:54;;;;;;;9.47;8.47;;;;;;;2.29;89.36;99744.78;1669014;84;21604;-65
2022/03/04 00:29:20;;;;;;;11.00;9.27;;;;;;;2.21;89.53;99744.71;1667989;84;20982;-64
2022/03/04 00:31:47;;;;;;;10.93;8.73;;;;;;;2.14;89.79;99744.47;1674499;84;20998;-68
2022/03/04 00:34:14;;;;;;;9.83;8.07;;;;;;;2.11;89.47;99746.56;1665681;85;21066;-67
2022/03/04 00:36:42;;;;;;;8.70;7.80;;;;;;;2.13;89.24;99742.01;1679261;84;21056;-65
2022/03/04 00:39:12;;;;;;;9.63;8.10;;;;;;;2.12;89.07;99745.60;1705549;84;20998;-64
2022/03/04 00:41:39;;;;;;;10.00;8.90;;;;;;;2.10;89.06;99743.61;1704008;84;21005;-64
2022/03/04 00:44:06;;;;;;;10.90;8.33;;;;;;;2.06;89.25;99740.94;1674467;85;21119;-66
2022/03/04 00:46:34;;;;;;;9.47;8.47;;;;;;;1.92;89.44;99739.62;1675586;85;21032;-66
2022/03/04 00:49:01;;;;;;;10.73;8.50;;;;;;;1.85;89.62;99738.58;1631347;86;21016;-65
2022/03/04 00:51:27;;;;;;;;;;;;;;;1.88;89.65;99740.89;1642929;85;21551;-65
2022/03/04 00:53:53;;;;;;;10.13;9.03;;;;;;;1.93;89.76;99739.48;1663525;85;20447;-65
2022/03/04 00:56:21;;;;;;;9.45;7.45;;;;;;;1.93;89.90;99742.60;1682670;85;21077;-65
2022/03/04 00:58:49;;;;;;;13.13;9.47;;;;;;;1.91;90.13;99740.61;1675578;83;21532;-67
2022/03/04 01:01:16;;;;;;;10.80;8.05;;;;;;;1.86;90.12;99743.66;1668114;84;21512;-65
2022/03/04 01:03:43;;;;;;;11.47;8.70;;;;;;;1.85;90.25;99741.20;1656157;85;21661;-65
2022/03/04 01:06:09;;;;;;;12.60;8.78;;;;;;;1.88;89.91;99741.71;1677212;84;21027;-66
2022/03/04 01:08:37;;;;;;;12.00;9.25;;;;;;;1.88;89.86;99743.52;1678076;84;21509;-67
2022/03/04 01:11:03;;;;;;;15.17;9.90;;;;;;;1.86;89.99;99739.72;1677829;84;21047;-65
2022/03/04 01:13:30;;;;;;;11.18;9.95;;;;;;;1.78;90.23;99734.87;1656817;85;21143;-64
2022/03/04 01:15:57;;;;;;;10.75;9.45;;;;;;;1.70;90.56;99736.92;1656513;85;21535;-65
2022/03/04 01:18:24;;;;;;;12.13;9.77;;;;;;;1.73;90.67;99734.83;1656247;85;21606;-64
2022/03/04 01:20:50;;;;;;;16.87;11.38;;;;;;;1.82;90.69;99733.11;1646309;85;21111;-65
2022/03/04 01:23:17;;;;;;;11.20;9.90;;;;;;;1.89;90.45;99735.50;1680455;83;21054;-65
2022/03/04 01:25:44;;;;;;;13.78;10.03;;;;;;;1.90;90.11;99731.06;1710673;83;21564;-68
2022/03/04 01:28:11;;;;;;;;;;;;;;;1.84;90.14;99735.59;1692962;82;21486;-65
2022/03/04 01:30:38;;;;;;;13.98;8.65;;;;;;;1.78;90.44;99728.30;1690745;83;20091;-64
2022/03/04 01:33:04;;;;;;;11.12;9.60;;;;;;;1.70;90.53;99734.30;1690367;83;21072;-66
2022/03/04 01:35:31;;;;;;;13.45;8.90;;;;;;;1.74;90.28;99731.22;1727746;83;21050;-68
2022/03/04 01:37:57;;;;;;;12.90;8.43;;;;;;;1.75;89.99;99746.02;1722602;83;21017;-64
2022/03/04 01:40:24;;;;;;;10.05;8.60;;;;;;;1.75;90.06;99737.28;1726121;83;21114;-65
2022/03/04 01:42:50;;;;;;;11.12;9.03;;;;;;;1.72;90.34;99734.48;1696570;84;21058;-64
2022/03/04 01:45:17;;;;;;;15.10;8.68;;;;;;;1.70;90.48;99737.73;1699828;83;21605;-65
2022/03/04 01:47:44;;;;;;;;;;;;;;;1.69;90.18;99741.33;1663325;85;21010;-65
2022/03/04 01:50:11;;;;;;;12.13;8.97;;;;;;;1.69;89.93;99746.58;1681510;85;20164;-65
2022/03/04 01:52:41;;;;;;;10.63;8.27;;;;;;;1.67;89.76;99747.70;1682118;85;21061;-65
2022/03/04 01:55:09;;;;;;;11.17;7.80;;;;;;;1.67;89.74;99747.70;1629054;85;21581;-64
2022/03/04 01:57:38;;;;;;;13.30;9.07;;;;;;;1.68;89.88;99754.14;1648993;86;21109;-66
2022/03/04 02:00:09;;;;;;;13.77;9.67;;;;;;;1.61;90.04;99754.38;1659834;86;21538;-67
2022/03/04 02:02:41;;;;;;;12.20;8.47;;;;;;;1.55;90.29;99752.33;1653930;85;21059;-65
2022/03/04 02:05:16;;;;;;;11.07;8.50;;;;;;;1.55;90.41;99749.70;1632730;86;21110;-64
2022/03/04 02:07:43;;;;;;;12.93;8.40;;;;;;;1.62;90.37;99753.88;1656528;86;21004;-72
2022/03/04 02:10:11;;;;;;;10.67;7.63;;;;;;;1.67;90.14;99751.66;1632435;86;21063;-66
2022/03/04 02:12:38;;;;;;;10.97;7.10;;;;;;;1.66;89.99;99754.77;1653108;85;21224;-68
2022/03/04 02:15:07;;;;;;;13.87;9.40;;;;;;;1.64;89.89;99755.41;1647442;86;21093;-70
2022/03/04 02:17:34;;;;;;;10.67;7.67;;;;;;;1.55;90.04;99758.89;1706930;83;21043;-66
2022/03/04 02:20:03;;;;;;;11.30;7.53;;;;;;;1.53;90.14;99753.78;1687816;84;21602;-65
2022/03/04 02:22:31;;;;;;;12.23;8.17;;;;;;;1.59;89.93;99752.38;1688212;83;21050;-66
2022/03/04 02:24:58;;;;;;;10.13;7.43;;;;;;;1.62;89.73;99753.41;1674345;85;21087;-64
2022/03/04 02:27:24;;;;;;;9.75;8.30;;;;;;;1.62;89.70;99741.59;1643134;87;21051;-65
2022/03/04 02:29:54;;;;;;;11.73;6.40;;;;;;;1.59;90.03;99750.25;1671367;85;21135;-65
2022/03/04 02:32:25;;;;;;;9.67;7.10;;;;;;;1.53;90.08;99746.40;1679807;84;21029;-64
2022/03/04 02:34:52;;;;;;;9.07;6.83;;;;;;;1.55;89.55;99758.89;1646039;85;21613;-64
2022/03/04 02:37:19;;;;;;;8.90;7.70;;;;;;;1.55;89.27;99755.78;1645346;86;21090;-69
2022/03/04 02:39:46;;;;;;;11.57;8.13;;;;;;;1.56;89.02;99755.28;1684003;85;21034;-64
2022/03/04 02:42:12;;;;;;;9.90;6.95;;;;;;;1.56;89.32;99756.59;1677031;85;21068;-64
2022/03/04 02:44:40;;;;;;;11.73;8.33;;;;;;;1.55;89.64;99756.27;1678816;85;21204;-64
2022/03/04 02:47:06;;;;;;;;;;;;;;;1.54;89.77;99762.48;1679745;85;20999;-66
2022/03/04 02:49:33;;;;;;;8.40;6.87;;;;;;;1.58;89.75;99766.47;1674635;86;20121;-64
2022/03/04 02:52:00;;;;;;;6.05;5.33;;;;;;;1.64;89.31;99761.12;1674670;86;21038;-65
2022/03/04 02:54:26;;;;;;;9.80;6.37;;;;;;;1.69;89.19;99766.78;1655127;86;21003;-65
2022/03/04 02:56:53;;;;;;;7.03;5.93;;;;;;;1.68;88.47;99770.40;1651520;85;21016;-65
2022/03/04 02:59:20;;;;;;;8.93;6.47;;;;;;;1.60;88.65;99768.50;1654546;86;21082;-66
2022/03/04 03:01:47;;;;;;;8.73;6.70;;;;;;;1.57;88.89;99772.71;1685923;84;21091;-66
2022/03/04 03:04:13;;;;;;;7.08;6.47;;;;;;;1.59;88.86;99770.77;1692831;84;20998;-65
2022/03/04 03:06:40;;;;;;;8.78;6.00;;;;;;;1.65;88.46;99775.44;1693331;84;20981;-65
2022/03/04 03:09:08;;;;;;;9.48;6.22;;;;;;;1.69;88.09;99773.34;1665456;85;21046;-66
2022/03/04 03:11:36;;;;;;;7.30;6.33;;;;;;;1.67;88.04;99770.05;1667579;84;21548;-68
2022/03/04 03:14:02;;;;;;;;;;;;;;;1.61;88.20;99764.87;1691810;85;21042;-66
2022/03/04 03:16:29;;;;;;;8.73;6.43;;;;;;;1.57;88.48;99767.95;1664497;85;20194;-67
2022/03/04 03:18:56;;;;;;;8.30;6.40;;;;;;;1.51;88.85;99774.11;1674435;85;21110;-65
2022/03/04 03:21:23;;;;;;;8.73;5.97;;;;;;;1.56;88.64;99774.98;1692483;84;21130;-65
2022/03/04 03:23:49;;;;;;;;;;;;;;;1.63;88.28;99776.06;1700641;83;21018;-65
2022/03/04 03:26:17;;;;;;;6.90;5.80;;;;;;;1.69;87.94;99775.48;1694853;84;20132;-67
2022/03/04 03:28:44;;;;;;;11.40;6.70;;;;;;;1.67;87.70;99782.69;1688445;84;21080;-64
2022/03/04 03:31:11;;;;;;;8.43;7.12;;;;;;;1.60;87.71;99779.00;1699058;84;21029;-64
2022/03/04 03:33:37;;;;;;;6.87;6.03;;;;;;;1.54;88.02;99777.78;1705779;82;21104;-65
2022/03/04 03:36:05;;;;;;;10.13;6.65;;;;;;;1.53;88.16;99778.73;1707073;83;21503;-65
2022/03/04 03:38:32;;;;;;;6.33;5.70;;;;;;;1.60;87.60;99782.09;1684615;83;21075;-64
2022/03/04 03:41:00;;;;;;;8.43;5.75;;;;;;;1.63;87.13;99782.64;1686128;83;21521;-65
2022/03/04 03:43:26;;;;;;;7.53;5.63;;;;;;;1.54;86.92;99777.78;1688733;83;21063;-65
2022/03/04 03:45:54;;;;;;;8.07;5.93;;;;;;;1.45;87.27;99785.20;1674794;83;21465;-65
2022/03/04 03:48:26;;;;;;;5.57;5.00;;;;;;;1.36;87.67;99779.00;1710081;83;21035;-65
2022/03/04 03:50:53;;;;;;;11.63;6.27;;;;;;;1.39;87.87;99784.94;1720900;83;21061;-65
2022/03/04 03:53:19;;;;;;;8.73;6.00;;;;;;;1.43;87.51;99785.84;1704357;83;21025;-66
2022/03/04 03:55:46;;;;;;;8.13;6.10;;;;;;;1.51;87.32;99785.94;1680438;85;21610;-64
2022/03/04 03:58:13;;;;;;;6.45;5.72;;;;;;;1.52;87.46;99779.70;1668694;85;21046;-65
2022/03/04 04:00:39;;;;;;;8.80;7.00;;;;;;;1.54;87.43;99782.19;1681232;84;21061;-65
2022/03/04 04:03:08;;;;;;;8.65;6.53;;;;;;;1.49;87.00;99776.06;1673495;84;21134;-64
2022/03/04 04:05:34;;;;;;;9.53;5.17;;;;;;;1.54;86.97;99782.19;1677822;85;21091;-64
2022/03/04 04:08:01;;;;;;;10.75;6.15;;;;;;;1.63;86.52;99777.88;1701520;83;21025;-64
2022/03/04 04:10:28;;;;;;;12.43;8.30;;;;;;;1.62;86.04;99774.43;1685843;84;21098;-64
2022/03/04 04:12:55;;;;;;;10.30;7.37;;;;;;;1.57;86.11;99779.77;1695824;84;20981;-64
2022/03/04 04:15:23;;;;;;;11.30;7.20;;;;;;;1.51;86.24;99775.43;1706731;83;21060;-67
2022/03/04 04:17:51;;;;;;;8.13;6.50;;;;;;;1.49;85.82;99769.50;1686130;84;21007;-63
2022/03/04 04:20:17;;;;;;;9.53;6.67;;;;;;;1.55;85.54;99765.47;1686586;84;21042;-64
2022/03/04 04:22:44;;;;;;;8.98;7.03;;;;;;;1.61;85.49;99768.82;1678810;84;21055;-64
2022/03/04 04:25:11;;;;;;;6.90;5.87;;;;;;;1.63;85.55;99766.05;1686484;84;21081;-65
2022/03/04 04:27:39;;;;;;;9.20;6.47;;;;;;;1.60;85.25;99760.61;1705947;83;20986;-65
2022/03/04 04:30:07;;;;;;;8.03;6.60;;;;;;;1.55;84.76;99771.54;1690530;83;21146;-71
2022/03/04 04:32:34;;;;;;;7.87;5.67;;;;;;;1.61;84.69;99771.94;1699236;83;21510;-64
2022/03/04 04:35:00;;;;;;;;;;;;;;;1.69;84.49;99772.85;1705229;83;21025;-65
2022/03/04 04:37:27;;;;;;;8.73;7.20;;;;;;;1.71;84.29;99768.77;1701599;83;20147;-64
2022/03/04 04:39:54;;;;;;;12.98;6.40;;;;;;;1.60;84.37;99765.02;1701979;83;21390;-66
2022/03/04 04:42:20;;;;;;;9.60;7.67;;;;;;;1.54;84.46;99767.27;1702380;83;21277;-65
2022/03/04 04:44:46;;;;;;;8.50;6.92;;;;;;;1.52;84.24;99767.88;1695934;83;21086;-64
2022/03/04 04:47:13;;;;;;;9.85;6.67;;;;;;;1.58;84.16;99761.71;1702114;84;21041;-64
2022/03/04 04:49:41;;;;;;;7.43;6.00;;;;;;;1.65;83.87;99764.92;1702046;84;21019;-67
2022/03/04 04:52:08;;;;;;;;;;;;;;;1.66;83.67;99761.34;1706150;83;21075;-64
2022/03/04 04:54:36;;;;;;;10.65;8.35;;;;;;;1.61;83.87;99768.82;1703915;83;20227;-67
2022/03/04 04:57:04;;;;;;;9.13;6.40;;;;;;;1.54;84.27;99769.90;1689752;84;21111;-66
2022/03/04 04:59:32;;;;;;;11.63;7.00;;;;;;;1.55;84.29;99769.41;1693804;84;21013;-65
2022/03/04 05:02:00;;;;;;;10.07;6.57;;;;;;;1.61;84.13;99767.51;1670550;84;21521;-64
2022/03/04 05:04:27;;;;;;;;;;;;;;;1.73;83.81;99779.50;1707174;83;21116;-65
2022/03/04 05:06:53;;;;;;;10.67;7.63;;;;;;;1.80;83.29;99777.10;1697954;83;20114;-63
2022/03/04 05:09:20;;;;;;;;;;;;;;;1.77;83.39;99784.45;1707389;83;21066;-65
2022/03/04 05:11:47;;;;;;;9.53;7.17;;;;;;;1.74;83.49;99784.27;1669151;84;20134;-64
2022/03/04 05:14:14;;;;;;;12.43;8.13;;;;;;;1.69;83.77;99784.67;1666911;84;21568;-64
2022/03/04 05:16:41;;;;;;;;;;;;;;;1.72;83.78;99794.91;1676906;85;21552;-66
2022/03/04 05:19:07;;;;;;;9.17;7.13;;;;;;;1.66;83.70;99784.98;1719074;83;20137;-65
2022/03/04 05:21:34;;;;;;;9.95;7.15;;;;;;;1.80;83.33;99795.50;1710129;83;21035;-65
2022/03/04 05:24:06;;;;;;;8.70;6.50;;;;;;;1.90;82.84;99792.82;1691173;83;21036;-65
2022/03/04 05:26:36;;;;;;;10.57;7.17;;;;;;;1.93;82.64;99791.23;1679430;83;21029;-65
2022/03/04 05:29:09;;;;;;;9.93;7.90;;;;;;;1.87;82.58;99794.45;1704525;83;21533;-65
2022/03/04 05:31:37;;;;;;;10.33;7.57;;;;;;;1.84;82.86;99794.72;1712686;83;20999;-65
2022/03/04 05:34:03;;;;;;;9.90;6.73;;;;;;;1.83;82.98;99793.91;1663453;85;21559;-67
2022/03/04 05:36:30;;;;;;;7.45;6.70;;;;;;;1.86;82.87;99798.85;1670032;84;21567;-65
2022/03/04 05:38:56;;;;;;;7.55;6.17;;;;;;;1.95;82.52;99803.23;1686177;84;21083;-64
2022/03/04 05:41:23;;;;;;;7.67;6.37;;;;;;;2.00;82.35;99800.19;1687603;84;21575;-65
2022/03/04 05:43:50;;;;;;;9.67;6.77;;;;;;;2.02;82.32;99807.94;1695255;84;21024;-64
2022/03/04 05:46:17;;;;;;;8.08;6.97;;;;;;;1.98;82.51;99807.86;1705381;84;21560;-64
2022/03/04 05:48:45;;;;;;;11.77;7.47;;;;;;;1.97;82.43;99820.68;1698091;84;21061;-68
2022/03/04 05:51:13;;;;;;;8.30;6.00;;;;;;;1.92;82.27;99818.01;1685783;85;21017;-65
2022/03/04 05:53:39;;;;;;;10.33;8.43;;;;;;;1.93;81.93;99822.77;1686574;85;21053;-67
2022/03/04 05:56:08;;;;;;;10.23;6.53;;;;;;;1.97;81.59;99825.44;1686518;85;21045;-67
2022/03/04 05:58:36;;;;;;;12.40;8.07;;;;;;;1.99;81.33;99831.38;1713713;83;21917;-64
2022/03/04 06:01:06;;;;;;;9.13;7.57;;;;;;;1.98;81.40;99835.00;1733975;83;21095;-64
2022/03/04 06:03:34;;;;;;;11.23;6.90;;;;;;;1.94;81.31;99840.17;1734169;82;21573;-66
2022/03/04 06:06:01;;;;;;;8.23;7.23;;;;;;;1.87;81.21;99837.81;1734223;83;20990;-68
2022/03/04 06:08:29;;;;;;;9.33;7.10;;;;;;;1.81;81.32;99848.87;1734111;83;21557;-65
2022/03/04 06:10:55;;;;;;;7.13;6.27;;;;;;;1.82;81.29;99848.73;1713888;83;21048;-67
2022/03/04 06:13:22;;;;;;;10.40;6.50;;;;;;;1.88;81.15;99851.27;1734328;83;21089;-68
2022/03/04 06:17:56;;;;;;;11.67;8.17;;;;;;;1.93;81.05;99846.42;1787854;79;22862;-64
2022/03/04 06:20:23;;;;;;;12.27;8.70;;;;;;;1.79;81.18;99849.05;1762504;80;21043;-64
2022/03/04 06:22:49;;;;;;;8.15;6.95;;;;;;;1.80;81.38;99857.25;1741839;79;21600;-65
2022/03/04 06:25:16;;;;;;;13.35;7.40;;;;;;;1.81;81.52;99856.30;1704301;83;21033;-64
2022/03/04 06:27:57;;;;;;;13.03;7.67;;;;;;;1.81;81.01;99857.61;1702481;83;21027;-65
2022/03/04 06:30:27;;;;;;;11.00;7.27;;;;;;;1.84;80.05;99851.23;1675842;84;21021;-65
2022/03/04 06:33:30;;;;;;;6.93;5.43;;;;;;;1.88;79.78;99851.27;1709077;82;21505;-66
2022/03/04 06:35:24;;;;;;;12.23;7.57;;;;;;;1.87;79.75;99857.52;1736114;81;21037;-65
2022/03/04 06:37:51;;;;;;;10.37;7.50;;;;;;;1.81;79.96;99856.30;1733522;81;21015;-65
2022/03/04 06:40:17;;;;;;;8.03;6.97;;;;;;;1.77;80.13;99848.83;1738522;81;20994;-66
2022/03/04 06:42:46;;;;;;;;;;;;;;;1.76;80.15;99857.20;1736552;81;21043;-65
2022/03/04 06:45:13;;;;;;;9.63;6.77;;;;;;;1.83;79.49;99849.09;1732481;81;20142;-70
2022/03/04 06:47:40;;;;;;;9.57;7.70;;;;;;;1.82;79.66;99856.63;1729839;81;21074;-66
2022/03/04 06:50:08;;;;;;;8.53;6.47;;;;;;;1.86;79.65;99848.78;1744586;81;21584;-68
2022/03/04 06:52:36;;;;;;;9.33;7.33;;;;;;;1.88;79.57;99850.78;1753840;82;21045;-66
2022/03/04 06:55:04;;;;;;;12.80;6.70;;;;;;;1.81;78.61;99855.45;1730600;81;21050;-66
2022/03/04 06:57:31;;;;;;;8.50;6.73;;;;;;;1.71;78.76;99856.80;1737079;81;21082;-66
2022/03/04 06:59:57;;;;;;;9.37;6.67;;;;;;;1.74;78.98;99852.09;1731670;82;21027;-66
2022/03/04 07:02:24;;;;;;;10.35;7.45;;;;;;;1.81;78.95;99840.99;1721304;82;21059;-66
2022/03/04 07:04:53;;;;;;;9.43;7.07;;;;;;;1.85;78.74;99842.39;1703440;81;21540;-64
2022/03/04 07:07:20;;;;;;;10.67;6.97;;;;;;;1.85;78.81;99848.95;1716001;81;21074;-70
2022/03/04 07:09:48;;;;;;;8.20;6.93;;;;;;;1.80;78.22;99831.47;1717571;81;20998;-68
2022/03/04 07:12:18;;;;;;;12.00;6.90;;;;;;;1.87;77.39;99841.26;1711748;81;21070;-70
2022/03/04 07:14:48;;;;;;;8.50;6.33;;;;;;;1.87;76.66;99845.70;1693735;83;21574;-68
2022/03/04 07:17:16;;;;;;;7.90;6.23;;;;;;;1.90;76.59;99857.22;1688780;83;21165;-65
2022/03/04 07:19:45;;;;;;;7.67;6.50;;;;;;;1.95;76.72;99847.10;1686118;83;20996;-65
2022/03/04 07:22:11;;;;;;;9.10;6.93;;;;;;;1.86;76.24;99855.36;1685619;83;21008;-65
2022/03/04 07:24:38;;;;;;;9.78;6.40;;;;;;;1.77;76.44;99848.83;1717270;82;21028;-67
2022/03/04 07:27:05;;;;;;;11.20;6.60;;;;;;;1.68;76.24;99861.86;1730079;82;21493;-70
2022/03/04 07:29:32;;;;;;;8.38;5.65;;;;;;;1.72;76.02;99855.34;1735998;82;21990;-65
2022/03/04 07:31:58;;;;;;;;;;;;;;;1.65;76.15;99861.31;1725815;82;21079;-66
2022/03/04 07:34:25;;;;;;;8.90;6.43;;;;;;;1.64;75.79;99857.02;1738711;82;20130;-67
2022/03/04 07:36:52;;;;;;;;;;;;;;;1.68;76.08;99864.48;1679435;84;21588;-68
2022/03/04 07:39:20;;;;;;;;;;;;;;;1.77;76.62;99864.59;1708901;83;20132;-66
2022/03/04 07:41:51;;;;;;;7.83;6.37;;;;;;;1.69;76.52;99862.68;1682196;84;20205;-64
2022/03/04 07:44:19;;;;;;;9.77;7.37;;;;;;;1.59;76.23;99866.66;1674920;84;21051;-67
2022/03/04 07:46:47;;;;;;;9.13;7.53;;;;;;;1.67;76.65;99869.88;1634915;85;21049;-65
2022/03/04 07:49:14;;;;;;;9.13;7.47;;;;;;;1.75;76.51;99870.84;1667734;84;21537;-65
2022/03/04 07:51:43;;;;;;;6.97;5.57;;;;;;;1.85;75.32;99866.04;1662220;86;21119;-66
2022/03/04 07:54:10;;;;;;;12.97;6.97;;;;;;;1.95;75.73;99862.38;1672944;84;21128;-66
2022/03/04 07:56:36;;;;;;;7.27;6.53;;;;;;;2.01;76.37;99855.72;1681668;85;21150;-69
2022/03/04 07:59:03;;;;;;;;;;;;;;;2.06;76.05;99866.64;1706395;84;21097;-64
2022/03/04 08:01:31;;;;;;;8.97;5.70;;;;;;;2.06;76.23;99858.75;1683886;84;20101;-76
2022/03/04 08:03:59;;;;;;;10.00;7.07;;;;;;;2.07;76.29;99859.11;1677423;84;21081;-66
2022/03/04 08:06:26;;;;;;;16.47;9.17;;;;;;;2.24;75.28;99861.91;1674670;85;21580;-71
2022/03/04 08:08:54;;;;;;;10.73;7.37;;;;;;;2.32;74.78;99869.92;1683333;84;21054;-68
2022/03/04 08:11:20;;;;;;;12.63;7.90;;;;;;;2.25;74.69;99868.84;1703815;84;21489;-66
2022/03/04 08:13:51;;;;;;;11.83;8.50;;;;;;;2.17;74.73;99873.52;1648819;86;21022;-66
2022/03/04 08:16:18;;;;;;;8.53;7.03;;;;;;;2.14;75.18;99860.65;1650056;85;21549;-65
2022/03/04 08:18:47;;;;;;;10.97;8.13;;;;;;;2.23;74.53;99874.24;1677772;85;21059;-69
2022/03/04 08:21:13;;;;;;;9.53;7.07;;;;;;;2.31;74.32;99876.95;1646227;86;21050;-66
2022/03/04 08:23:41;;;;;;;7.30;6.43;;;;;;;2.29;74.55;99874.14;1684236;84;21083;-75
2022/03/04 08:26:09;;;;;;;6.70;6.03;;;;;;;2.27;74.17;99876.91;1649513;86;21613;-64
2022/03/04 08:28:35;;;;;;;12.10;7.00;;;;;;;2.22;73.96;99875.70;1664367;85;21050;-67
2022/03/04 08:31:10;;;;;;;6.65;5.42;;;;;;;2.19;74.64;99870.25;1653416;86;21550;-67
2022/03/04 08:33:31;;;;;;;7.07;6.37;;;;;;;2.33;74.56;99875.50;1675743;85;21353;-65
2022/03/04 08:35:58;;;;;;;9.57;6.13;;;;;;;2.46;74.38;99873.84;1668382;85;21557;-66
2022/03/04 08:38:25;;;;;;;10.53;7.23;;;;;;;2.57;73.74;99884.17;1683505;85;21606;-68
2022/03/04 08:40:51;;;;;;;8.48;6.05;;;;;;;2.50;73.31;99869.94;1685274;85;22095;-66
2022/03/04 08:43:18;;;;;;;10.70;7.40;;;;;;;2.60;73.83;99877.31;1652328;86;21541;-65
2022/03/04 08:45:45;;;;;;;9.63;6.50;;;;;;;2.63;72.99;99878.80;1695007;84;21576;-71
2022/03/04 08:48:12;;;;;;;7.77;6.80;;;;;;;2.60;72.34;99876.45;1699860;84;21565;-68
2022/03/04 08:50:39;;;;;;;7.90;6.43;;;;;;;2.63;72.80;99875.67;1702047;84;21093;-66
2022/03/04 08:53:07;;;;;;;11.37;6.40;;;;;;;2.65;72.67;99874.22;1690080;84;21046;-72
2022/03/04 08:55:33;;;;;;;9.00;7.07;;;;;;;2.61;72.71;99876.31;1669024;85;21554;-66
2022/03/04 08:58:00;;;;;;;11.18;6.67;;;;;;;2.63;72.84;99878.30;1700176;84;21069;-66
2022/03/04 09:00:28;;;;;;;8.67;7.00;;;;;;;2.62;72.40;99880.61;1688229;82;21561;-66
2022/03/04 09:02:56;;;;;;;9.37;7.50;;;;;;;2.60;72.89;99874.67;1735823;82;21567;-66
2022/03/04 09:05:24;;;;;;;9.30;7.27;;;;;;;2.67;72.48;99869.63;1746984;82;21108;-66
2022/03/04 09:07:50;;;;;;;7.83;6.27;;;;;;;2.77;71.94;99862.52;1751741;81;21018;-65
2022/03/04 09:10:17;;;;;;;8.37;7.20;;;;;;;2.84;71.77;99870.13;1738322;81;21052;-66
2022/03/04 09:12:48;;;;;;;10.00;7.97;;;;;;;2.80;71.87;99882.43;1744648;82;21018;-67
2022/03/04 09:15:15;;;;;;;7.50;6.70;;;;;;;2.78;71.80;99874.68;1721759;82;21022;-67
2022/03/04 09:17:42;;;;;;;8.65;6.97;;;;;;;2.79;72.29;99872.41;1740111;82;21062;-67
2022/03/04 09:20:14;;;;;;;13.30;9.60;;;;;;;2.79;72.31;99871.09;1743029;82;21004;-68
2022/03/04 09:22:42;;;;;;;8.13;6.83;;;;;;;2.84;72.47;99875.89;1730313;82;21042;-65
2022/03/04 09:25:09;;;;;;;8.00;6.20;;;;;;;2.95;72.45;99876.16;1682832;84;21040;-68
2022/03/04 09:27:36;;;;;;;8.63;6.83;;;;;;;3.04;72.09;99878.72;1666023;85;21072;-70
2022/03/04 09:30:05;;;;;;;6.73;6.03;;;;;;;3.01;71.89;99878.19;1667646;84;21047;-65
2022/03/04 09:32:35;;;;;;;9.53;7.20;;;;;;;2.91;72.02;99880.40;1652673;86;21039;-66
2022/03/04 09:35:02;;;;;;;13.20;7.77;;;;;;;2.87;71.93;99880.37;1663005;85;21120;-64
2022/03/04 09:37:29;;;;;;;9.00;6.70;;;;;;;2.79;71.89;99877.66;1637510;86;21058;-66
2022/03/04 09:39:55;;;;;;;8.65;6.67;;;;;;;2.73;72.99;99867.24;1665380;85;21071;-67
2022/03/04 09:42:23;;;;;;;12.03;7.00;;;;;;;2.76;72.47;99876.63;1645881;86;21118;-66
2022/03/04 09:44:50;;;;;;;9.90;6.70;;;;;;;2.83;71.77;99876.88;1673331;85;21074;-67
2022/03/04 09:47:20;;;;;;;;;;;;;;;2.80;71.87;99868.77;1628291;88;21041;-66
2022/03/04 09:49:49;;;;;;;9.17;6.43;;;;;;;2.79;72.41;99851.34;1675231;85;20440;-65
2022/03/04 09:52:17;;;;;;;9.17;6.50;;;;;;;2.75;71.80;99867.56;1642745;86;20980;-65
2022/03/04 09:54:52;;;;;;;9.63;6.67;;;;;;;2.78;71.47;99877.31;1645921;86;21044;-66
2022/03/04 09:57:21;;;;;;;8.40;7.00;;;;;;;2.83;70.98;99876.88;1688540;85;21138;-68
2022/03/04 09:59:47;;;;;;;8.73;6.90;;;;;;;2.93;71.03;99871.86;1665448;85;21112;-66
2022/03/04 10:02:15;;;;;;;12.37;7.60;;;;;;;3.00;70.25;99875.23;1664132;85;21511;-66
2022/03/04 10:04:41;;;;;;;10.17;7.67;;;;;;;2.95;70.57;99873.53;1667778;85;21027;-66
2022/03/04 10:07:17;;;;;;;12.93;7.87;;;;;;;2.93;70.92;99874.49;1665570;85;21083;-65
2022/03/04 10:09:47;;;;;;;10.77;7.70;;;;;;;2.95;70.54;99874.34;1637837;86;21039;-65
2022/03/04 10:12:17;;;;;;;11.97;7.27;;;;;;;2.93;70.15;99883.70;1638103;86;21072;-67
2022/03/04 10:15:06;;;;;;;10.27;7.80;;;;;;;2.91;70.05;99883.03;1633374;87;21565;-66
2022/03/04 10:17:36;;;;;;;14.77;8.10;;;;;;;2.97;69.24;99891.31;1682969;85;21146;-65
2022/03/04 10:20:09;;;;;;;11.43;8.73;;;;;;;2.93;69.41;99891.61;1637863;86;21161;-67
2022/03/04 10:22:42;;;;;;;10.50;8.80;;;;;;;2.89;69.44;99890.26;1668214;85;21098;-65
2022/03/04 10:25:20;;;;;;;9.57;8.17;;;;;;;2.92;69.24;99884.70;1695795;84;21130;-66
2022/03/04 10:27:47;;;;;;;10.63;8.20;;;;;;;2.97;69.82;99887.37;1694811;84;21122;-65
2022/03/04 10:30:16;;;;;;;9.80;6.77;;;;;;;3.04;69.62;99894.52;1674055;85;21125;-67
2022/03/04 10:32:43;;;;;;;11.67;9.10;;;;;;;3.08;69.13;99891.91;1680699;85;21085;-65
2022/03/04 10:35:14;;;;;;;11.80;9.23;;;;;;;3.19;69.26;99885.59;1713362;82;20998;-65
2022/03/04 10:37:57;;;;;;;10.70;8.67;;;;;;;3.24;68.62;99896.98;1739621;81;21075;-66
2022/03/04 10:40:25;;;;;;;9.90;8.27;;;;;;;3.27;68.79;99884.83;1741710;82;21094;-65
2022/03/04 10:43:06;;;;;;;12.17;9.90;;;;;;;3.29;69.18;99888.96;1734189;82;21490;-66
2022/03/04 10:45:45;;;;;;;15.47;11.30;;;;;;;3.38;68.95;99893.00;1724844;82;21053;-67
2022/03/04 10:48:17;;;;;;;15.80;9.37;;;;;;;3.40;68.31;99889.72;1721903;82;21444;-66
2022/03/04 10:50:51;;;;;;;13.93;8.83;;;;;;;3.36;67.88;99887.05;1742819;82;21482;-65
2022/03/04 10:53:22;;;;;;;17.20;8.87;;;;;;;3.35;67.97;99881.44;1745915;82;20996;-68
2022/03/04 10:55:53;;;;;;;10.70;8.03;;;;;;;3.41;67.85;99878.19;1737692;81;21472;-66
2022/03/04 10:58:40;;;;;;;10.87;9.00;;;;;;;3.50;67.62;99882.53;1722128;82;20996;-67
2022/03/04 11:01:12;;;;;;;10.15;7.72;;;;;;;3.48;67.04;99880.08;1737773;81;21477;-67
2022/03/04 11:03:41;;;;;;;15.80;9.67;;;;;;;3.38;66.52;99853.48;1722477;82;21006;-66
2022/03/04 11:06:11;;;;;;;14.67;9.77;;;;;;;3.38;66.70;99875.88;1749235;82;21513;-68
2022/03/04 11:08:39;;;;;;;13.03;9.73;;;;;;;3.38;66.63;99867.47;1733832;82;21027;-66
2022/03/04 11:11:10;;;;;;;11.47;8.93;;;;;;;3.33;66.99;99865.78;1740611;82;21058;-66
2022/03/04 11:13:37;;;;;;;12.70;9.20;;;;;;;3.30;67.25;99878.77;1731716;82;21003;-73
2022/03/04 11:16:08;;;;;;;14.63;11.83;;;;;;;3.34;67.34;99858.23;1749182;81;21002;-65
2022/03/04 11:18:38;;;;;;;14.37;12.43;;;;;;;3.44;67.15;99875.25;1727056;82;21020;-68
2022/03/04 11:21:08;;;;;;;16.80;12.70;;;;;;;3.55;67.30;99865.78;1725920;82;21012;-66
2022/03/04 11:23:37;;;;;;;16.00;11.90;;;;;;;3.64;66.32;99862.22;1751507;82;21093;-68
2022/03/04 11:26:11;;;;;;;17.63;12.93;;;;;;;3.67;65.88;99857.97;1729737;81;21034;-69
2022/03/04 11:28:42;;;;;;;16.53;12.90;;;;;;;3.73;65.82;99872.80;1738934;82;20997;-72
2022/03/04 11:31:14;;;;;;;14.13;12.03;;;;;;;3.79;65.99;99874.84;1744621;82;21297;-66
2022/03/04 11:34:00;;;;;;;13.73;12.07;;;;;;;3.82;65.34;99868.73;1751669;81;21053;-65
2022/03/04 11:36:30;;;;;;;16.97;11.20;;;;;;;3.82;65.54;99872.69;1751613;82;21055;-66
2022/03/04 11:39:01;;;;;;;13.93;10.07;;;;;;;3.77;64.88;99868.87;1736778;81;21012;-71
2022/03/04 11:41:34;;;;;;;13.57;9.20;;;;;;;3.75;64.90;99870.37;1721728;82;21053;-64
2022/03/04 11:44:22;;;;;;;10.93;9.00;;;;;;;3.81;63.58;99873.69;1716570;82;21066;-64
2022/03/04 11:47:01;;;;;;;12.37;8.53;;;;;;;3.73;63.55;99875.44;1739951;82;21663;-67
2022/03/04 11:49:47;;;;;;;12.43;7.80;;;;;;;3.60;64.25;99868.79;1731665;82;21120;-66